< Typhoon 198518 1985 Season Typhoon 198520 >
Typhoon 198519 (ANDY)
General InformationTrack Information on Google MapsDetailed Wind InformationList of All Images || Disaster Info.ResourceGoogle EarthGE AnimationAtom FeedGeoJSON
Detalied Best Track (Time Zone = UTC)
Year Month Day Hour Lat. Long. Pressure (hPa) Wind (kt) Class Image Chart
1985 9 24 06 7.5 133.0 1006 0 2 Image Chart
1985 9 24 12 8.5 131.5 1006 0 2 Image Chart
1985 9 24 18 10.0 130.0 1006 0 2 Image Chart
1985 9 25 00 11.0 129.0 1006 0 2 Image Chart
1985 9 25 06 12.0 128.0 1006 0 2 Image Chart
1985 9 25 12 13.0 126.5 1006 0 2 Image Chart
1985 9 25 18 15.0 125.0 1006 0 2 Image Chart
1985 9 26 00 17.5 122.5 1006 0 2 Image Chart
1985 9 26 06 18.0 120.5 1004 0 2 Image Chart
1985 9 26 12 19.0 119.0 1004 0 2 Image Chart
1985 9 26 18 19.3 118.5 1004 0 2 Image Chart
1985 9 27 00 19.5 118.0 1004 0 2 Image Chart
1985 9 27 06 19.5 117.5 1004 0 2 Image Chart
1985 9 27 12 19.3 116.8 1002 0 2 Image Chart
1985 9 27 18 19.2 116.0 1002 0 2 Image Chart
1985 9 28 00 19.0 115.5 1000 40 3 Image Chart
1985 9 28 06 19.0 114.6 994 40 3 Image Chart
1985 9 28 12 18.8 113.4 994 40 3 Image Chart
1985 9 28 18 18.8 112.6 994 40 3 Image Chart
1985 9 29 00 18.8 112.1 990 50 4 Image Chart
1985 9 29 06 18.8 111.4 985 55 4 Image Chart
1985 9 29 12 18.8 110.9 985 55 4 Image Chart
1985 9 29 18 18.5 110.0 985 55 4 Image Chart
1985 9 30 00 18.2 109.5 985 55 4 Image Chart
1985 9 30 06 18.2 109.0 985 55 4 Image Chart
1985 9 30 12 18.2 108.4 985 50 4 Image Chart
1985 9 30 18 18.1 107.9 985 50 4 Image Chart
1985 10 1 00 18.0 107.3 985 50 4 Image Chart
1985 10 1 06 17.8 106.8 985 50 4 Image Chart
1985 10 1 12 17.6 106.3 992 45 3 Image Chart
1985 10 1 18 17.5 105.7 996 45 3 Image Chart
1985 10 2 00 17.3 105.2 1004 0 2 Image Chart
1985 10 2 06 17.3 104.5 1008 0 2 Image Chart
Japan Meteorological Agency Best Track Data | Correction Date : 1992-10-21
< Typhoon 198518 1985 Season Typhoon 198520 >

Help